Time;durP1;ratioP1;P1;durP2;ratioP2;P2;SDS_P1;SDS_P2;PMS_P1;PMS_P2;Temp;Humidity;BMP_temperature;BMP_pressure;BME280_temperature;BME280_humidity;BME280_pressure;Samples;Min_cycle;Max_cycle;Signal;HPM_P1;HPM_P2
2023/10/24 00:00:21;;;;;;;1.23;1.13;;;;;;;;;;5063262;28;20024;-78
2023/10/24 00:02:47;;;;;;;1.40;1.30;;;;;;;;;;5058613;28;20028;-77
2023/10/24 00:05:13;;;;;;;1.02;1.02;;;;;;;;;;5054871;28;20028;-77
2023/10/24 00:07:39;;;;;;;1.10;1.00;;;;;;;;;;5054631;28;20020;-77
2023/10/24 00:10:05;;;;;;;1.55;1.42;;;;;;;;;;5054800;28;20032;-77
2023/10/24 00:12:31;;;;;;;0.93;0.93;;;;;;;;;;5054300;28;20016;-78
2023/10/24 00:14:58;;;;;;;1.30;1.15;;;;;;;;;;5067436;28;20033;-78
2023/10/24 00:17:24;;;;;;;1.35;1.25;;;;;;;;;;5067802;28;20021;-78
2023/10/24 00:19:50;;;;;;;1.10;0.90;;;;;;;;;;5054527;28;20278;-78
2023/10/24 00:22:16;;;;;;;0.93;0.93;;;;;;;;;;5052676;28;20072;-79
2023/10/24 00:24:43;;;;;;;1.33;0.98;;;;;;;;;;5050744;28;20029;-78
2023/10/24 00:27:09;;;;;;;1.00;1.00;;;;;;;;;;5054005;28;20116;-78
2023/10/24 00:29:35;;;;;;;0.90;0.90;;;;;;;;;;5066299;28;20047;-79
2023/10/24 00:32:01;;;;;;;0.80;0.80;;;;;;;;;;5062252;28;20029;-78
2023/10/24 00:34:27;;;;;;;1.00;0.98;;;;;;;;;;5055615;28;20039;-78
2023/10/24 00:36:53;;;;;;;1.85;1.13;;;;;;;;;;5057723;28;20028;-78
2023/10/24 00:39:19;;;;;;;1.63;1.27;;;;;;;;;;5061610;28;20028;-78
2023/10/24 00:41:45;;;;;;;3.63;2.92;;;;;;;;;;5061667;28;20032;-77
2023/10/24 00:44:12;;;;;;;3.65;3.20;;;;;;;;;;5053205;28;20044;-77
2023/10/24 00:46:39;;;;;;;5.68;3.80;;;;;;;;;;5052888;28;20017;-77
2023/10/24 00:49:06;;;;;;;4.68;3.65;;;;;;;;;;5052807;28;20171;-77
2023/10/24 00:51:32;;;;;;;5.05;4.05;;;;;;;;;;5045345;28;20018;-77
2023/10/24 00:53:59;;;;;;;4.47;3.70;;;;;;;;;;5051658;28;20024;-77
2023/10/24 00:56:26;;;;;;;3.83;3.20;;;;;;;;;;5045471;28;20030;-77
2023/10/24 00:58:52;;;;;;;4.57;3.30;;;;;;;;;;5057927;28;20379;-78
2023/10/24 01:01:19;;;;;;;3.28;2.95;;;;;;;;;;5053161;28;20090;-78
2023/10/24 01:03:46;;;;;;;3.20;2.83;;;;;;;;;;5051903;28;20522;-77
2023/10/24 01:06:12;;;;;;;3.65;2.90;;;;;;;;;;5053083;28;20108;-77
2023/10/24 01:08:38;;;;;;;3.50;3.20;;;;;;;;;;5071836;28;20021;-79
2023/10/24 01:11:05;;;;;;;4.78;3.20;;;;;;;;;;5064029;28;20018;-78
2023/10/24 01:13:31;;;;;;;2.90;2.58;;;;;;;;;;5052288;28;20079;-78
2023/10/24 01:15:57;;;;;;;2.22;2.00;;;;;;;;;;5050353;28;20048;-77
2023/10/24 01:18:24;;;;;;;3.45;2.60;;;;;;;;;;5061572;28;20021;-78
2023/10/24 01:20:50;;;;;;;2.97;2.67;;;;;;;;;;5064866;28;20021;-78
2023/10/24 01:23:17;;;;;;;2.35;2.10;;;;;;;;;;5063332;28;20040;-77
2023/10/24 01:25:43;;;;;;;2.15;1.98;;;;;;;;;;5071610;28;20029;-79
2023/10/24 01:28:09;;;;;;;3.05;2.10;;;;;;;;;;5076758;28;20069;-78
2023/10/24 01:30:36;;;;;;;2.10;1.80;;;;;;;;;;5078238;28;20021;-78
2023/10/24 01:33:02;;;;;;;2.55;1.90;;;;;;;;;;5078885;28;20021;-78
2023/10/24 01:35:28;;;;;;;2.05;1.92;;;;;;;;;;5058600;28;20384;-77
2023/10/24 01:37:55;;;;;;;1.77;1.67;;;;;;;;;;5058651;28;20083;-78
2023/10/24 01:40:21;;;;;;;1.58;1.48;;;;;;;;;;5059063;28;20029;-77
2023/10/24 01:42:47;;;;;;;1.73;1.63;;;;;;;;;;5058212;28;20155;-77
2023/10/24 01:45:15;;;;;;;1.88;1.23;;;;;;;;;;5059926;28;20044;-79
2023/10/24 01:47:41;;;;;;;1.35;1.25;;;;;;;;;;5055200;28;20021;-77
2023/10/24 01:50:07;;;;;;;1.20;1.10;;;;;;;;;;5056337;28;20392;-77
2023/10/24 01:52:34;;;;;;;1.00;1.00;;;;;;;;;;5048594;28;20100;-77
2023/10/24 01:55:00;;;;;;;1.20;1.17;;;;;;;;;;5055611;28;20017;-78
2023/10/24 01:57:26;;;;;;;1.58;1.48;;;;;;;;;;5059609;28;20017;-77
2023/10/24 01:59:52;;;;;;;1.38;1.10;;;;;;;;;;5055831;28;20027;-77
2023/10/24 02:02:18;;;;;;;1.60;1.50;;;;;;;;;;5055576;28;20032;-78
2023/10/24 02:04:44;;;;;;;1.50;1.40;;;;;;;;;;5055349;28;20021;-78
2023/10/24 02:07:10;;;;;;;1.30;1.20;;;;;;;;;;5054326;28;20365;-78
2023/10/24 02:09:36;;;;;;;1.30;1.20;;;;;;;;;;5055340;28;20025;-78
2023/10/24 02:12:06;;;;;;;1.25;1.05;;;;;;;;;;5063646;28;20025;-78
2023/10/24 02:14:32;;;;;;;1.17;1.08;;;;;;;;;;5056542;28;20025;-78
2023/10/24 02:16:58;;;;;;;1.23;1.13;;;;;;;;;;5063747;28;20514;-78
2023/10/24 02:19:24;;;;;;;1.02;1.02;;;;;;;;;;5053040;28;20024;-79
2023/10/24 02:21:50;;;;;;;0.90;0.90;;;;;;;;;;5059075;28;20032;-79
2023/10/24 02:24:16;;;;;;;1.17;1.08;;;;;;;;;;5061449;28;20021;-79
2023/10/24 02:26:43;;;;;;;1.17;1.10;;;;;;;;;;5058009;28;20044;-77
2023/10/24 02:29:09;;;;;;;0.93;0.90;;;;;;;;;;5054667;28;20086;-79
2023/10/24 02:31:35;;;;;;;1.08;1.00;;;;;;;;;;5064146;28;20123;-78
2023/10/24 02:34:02;;;;;;;1.20;1.10;;;;;;;;;;5065930;28;20021;-77
2023/10/24 02:36:28;;;;;;;0.90;0.90;;;;;;;;;;5056606;28;20017;-77
2023/10/24 02:38:54;;;;;;;0.98;0.90;;;;;;;;;;5052722;28;20025;-77
2023/10/24 02:41:20;;;;;;;0.80;0.80;;;;;;;;;;5053992;28;20025;-77
2023/10/24 02:43:46;;;;;;;1.00;1.00;;;;;;;;;;5056339;28;20411;-78
2023/10/24 02:46:13;;;;;;;0.90;0.90;;;;;;;;;;5064166;28;20038;-78
2023/10/24 02:48:39;;;;;;;1.20;1.10;;;;;;;;;;5058652;28;20029;-79
2023/10/24 02:51:05;;;;;;;1.00;1.00;;;;;;;;;;5049546;28;20480;-77
2023/10/24 02:53:31;;;;;;;0.73;0.73;;;;;;;;;;5056179;28;20127;-77
2023/10/24 02:56:01;;;;;;;0.93;0.93;;;;;;;;;;5058211;28;20036;-77
2023/10/24 02:58:27;;;;;;;0.77;0.77;;;;;;;;;;5063758;28;20101;-78
2023/10/24 03:00:53;;;;;;;1.00;0.90;;;;;;;;;;5074882;28;20036;-77
2023/10/24 03:03:23;;;;;;;1.10;1.00;;;;;;;;;;5065942;28;20125;-77
2023/10/24 03:05:49;;;;;;;0.90;0.80;;;;;;;;;;5075859;28;20021;-77
2023/10/24 03:08:18;;;;;;;0.80;0.80;;;;;;;;;;5078859;28;20022;-77
2023/10/24 03:10:44;;;;;;;0.63;0.63;;;;;;;;;;5075417;28;20395;-76
2023/10/24 03:13:10;;;;;;;0.68;0.68;;;;;;;;;;5079583;28;20055;-77
2023/10/24 03:15:40;;;;;;;0.85;0.82;;;;;;;;;;5077126;28;20021;-76
2023/10/24 03:18:07;;;;;;;0.52;0.52;;;;;;;;;;5075316;28;20054;-76
2023/10/24 03:20:33;;;;;;;0.70;0.70;;;;;;;;;;5077586;28;20012;-77
2023/10/24 03:22:59;;;;;;;0.70;0.70;;;;;;;;;;5079931;28;20031;-76
2023/10/24 03:25:25;;;;;;;0.50;0.50;;;;;;;;;;5069970;28;20064;-77
2023/10/24 03:27:53;;;;;;;0.60;0.60;;;;;;;;;;5075387;28;20088;-75
2023/10/24 03:30:19;;;;;;;0.57;0.57;;;;;;;;;;5076355;28;20013;-75
2023/10/24 03:32:45;;;;;;;0.50;0.50;;;;;;;;;;5073142;28;20112;-75
2023/10/24 03:35:11;;;;;;;0.65;0.65;;;;;;;;;;5074111;28;20076;-76
2023/10/24 03:37:37;;;;;;;0.70;0.70;;;;;;;;;;5072266;28;20029;-75
2023/10/24 03:40:03;;;;;;;0.82;0.82;;;;;;;;;;5071415;28;20021;-76
2023/10/24 03:42:32;;;;;;;0.70;0.63;;;;;;;;;;5057585;28;20038;-75
2023/10/24 03:44:58;;;;;;;0.60;0.60;;;;;;;;;;5045143;28;20105;-76
2023/10/24 03:47:25;;;;;;;0.73;0.73;;;;;;;;;;5042553;28;20025;-77
2023/10/24 03:49:51;;;;;;;0.60;0.60;;;;;;;;;;5044014;28;20081;-76
2023/10/24 03:52:17;;;;;;;1.02;0.90;;;;;;;;;;5059776;28;20022;-75
2023/10/24 03:54:43;;;;;;;0.32;0.32;;;;;;;;;;5071877;28;20017;-76
2023/10/24 03:57:10;;;;;;;0.60;0.60;;;;;;;;;;5075191;28;20051;-76
2023/10/24 03:59:36;;;;;;;0.60;0.60;;;;;;;;;;5073964;28;20028;-76
2023/10/24 04:02:02;;;;;;;0.50;0.50;;;;;;;;;;5058065;28;20025;-76
2023/10/24 04:04:30;;;;;;;0.50;0.50;;;;;;;;;;5054963;28;20032;-75
2023/10/24 04:06:56;;;;;;;0.80;0.80;;;;;;;;;;5054287;28;20107;-76
2023/10/24 04:09:22;;;;;;;0.80;0.80;;;;;;;;;;5054202;28;20021;-74
2023/10/24 04:11:48;;;;;;;0.70;0.70;;;;;;;;;;5042819;28;20025;-75
2023/10/24 04:14:14;;;;;;;0.77;0.57;;;;;;;;;;5033710;28;20028;-75
2023/10/24 04:16:40;;;;;;;0.90;0.90;;;;;;;;;;5033681;28;20056;-76
2023/10/24 04:19:06;;;;;;;0.73;0.73;;;;;;;;;;5033700;28;20025;-74
2023/10/24 04:21:33;;;;;;;0.90;0.90;;;;;;;;;;5047439;28;20081;-75
2023/10/24 04:23:59;;;;;;;0.70;0.70;;;;;;;;;;5053687;28;20028;-77
2023/10/24 04:29:31;;;;;;;0.82;0.82;;;;;;;;;;5055856;28;20097;-75
2023/10/24 04:31:57;;;;;;;0.93;0.90;;;;;;;;;;5053900;28;20028;-75
2023/10/24 04:34:23;;;;;;;0.80;0.80;;;;;;;;;;5064371;28;20031;-73
2023/10/24 04:36:49;;;;;;;1.15;0.73;;;;;;;;;;5066143;28;20029;-74
2023/10/24 04:39:15;;;;;;;0.75;0.75;;;;;;;;;;5062603;28;20475;-74
2023/10/24 04:41:41;;;;;;;0.82;0.80;;;;;;;;;;5058994;28;20097;-73
2023/10/24 04:44:08;;;;;;;0.98;0.98;;;;;;;;;;5045506;28;20076;-74
2023/10/24 04:46:34;;;;;;;0.85;0.80;;;;;;;;;;5046888;28;20041;-73
2023/10/24 04:49:00;;;;;;;0.68;0.68;;;;;;;;;;5041000;28;20021;-76
2023/10/24 04:51:26;;;;;;;0.77;0.77;;;;;;;;;;5047584;28;20021;-75
2023/10/24 04:53:52;;;;;;;0.75;0.75;;;;;;;;;;5051988;28;20107;-75
2023/10/24 04:56:18;;;;;;;0.93;0.90;;;;;;;;;;5051893;28;20029;-75
2023/10/24 04:58:44;;;;;;;1.17;1.08;;;;;;;;;;5052429;28;20075;-75
2023/10/24 05:01:11;;;;;;;0.90;0.90;;;;;;;;;;5051998;28;20108;-75
2023/10/24 05:03:38;;;;;;;0.70;0.70;;;;;;;;;;5040266;28;20091;-74
2023/10/24 05:06:04;;;;;;;0.90;0.90;;;;;;;;;;5035371;28;20096;-74
2023/10/24 05:08:31;;;;;;;0.80;0.80;;;;;;;;;;5035523;28;20087;-75
2023/10/24 05:10:57;;;;;;;0.93;0.93;;;;;;;;;;5039140;28;20028;-75
2023/10/24 05:13:23;;;;;;;0.88;0.88;;;;;;;;;;5050565;28;20028;-73
2023/10/24 05:15:49;;;;;;;1.30;1.10;;;;;;;;;;5071778;28;20029;-74
2023/10/24 05:18:15;;;;;;;0.80;0.80;;;;;;;;;;5057954;28;20550;-74
2023/10/24 05:20:41;;;;;;;1.40;1.10;;;;;;;;;;5056668;28;20032;-75
2023/10/24 05:23:08;;;;;;;0.75;0.75;;;;;;;;;;5058325;28;20017;-75
2023/10/24 05:25:34;;;;;;;0.88;0.88;;;;;;;;;;5056354;28;20083;-75
2023/10/24 05:28:00;;;;;;;0.90;0.90;;;;;;;;;;5058581;28;20032;-75
2023/10/24 05:30:26;;;;;;;1.05;0.98;;;;;;;;;;5057275;28;20131;-74
2023/10/24 05:32:52;;;;;;;1.20;1.10;;;;;;;;;;5056566;28;20021;-75
2023/10/24 05:35:18;;;;;;;1.13;1.10;;;;;;;;;;5056112;28;20545;-75
2023/10/24 05:37:45;;;;;;;1.65;1.55;;;;;;;;;;5056802;28;20082;-74
2023/10/24 05:40:11;;;;;;;2.03;1.88;;;;;;;;;;5057096;28;20026;-75
2023/10/24 05:42:37;;;;;;;2.00;1.80;;;;;;;;;;5056946;28;20024;-75
2023/10/24 05:45:04;;;;;;;2.30;2.10;;;;;;;;;;5043858;28;20026;-75
2023/10/24 05:47:30;;;;;;;2.55;2.00;;;;;;;;;;5036985;28;20083;-75
2023/10/24 05:49:56;;;;;;;2.25;2.05;;;;;;;;;;5039045;28;20021;-75
2023/10/24 05:52:22;;;;;;;1.70;1.60;;;;;;;;;;5049621;28;20026;-75
2023/10/24 05:54:48;;;;;;;2.03;1.65;;;;;;;;;;5057228;28;20025;-74
2023/10/24 05:57:14;;;;;;;2.67;1.80;;;;;;;;;;5068653;28;20024;-76
2023/10/24 05:59:40;;;;;;;1.75;1.65;;;;;;;;;;5059942;28;20057;-75
2023/10/24 06:02:06;;;;;;;1.50;1.40;;;;;;;;;;5059345;28;20028;-75
2023/10/24 06:04:34;;;;;;;1.40;1.30;;;;;;;;;;5054863;28;20025;-75
2023/10/24 06:07:00;;;;;;;1.58;1.48;;;;;;;;;;5035599;28;20025;-74
2023/10/24 06:09:26;;;;;;;1.80;1.70;;;;;;;;;;5037258;28;20484;-74
2023/10/24 06:11:52;;;;;;;1.42;1.33;;;;;;;;;;5037609;28;20021;-75
2023/10/24 06:14:19;;;;;;;1.73;1.40;;;;;;;;;;5037460;28;20021;-75
2023/10/24 06:16:45;;;;;;;1.45;1.35;;;;;;;;;;5055463;28;20391;-74
2023/10/24 06:19:11;;;;;;;1.77;1.65;;;;;;;;;;5056742;28;20029;-76
2023/10/24 06:21:38;;;;;;;3.30;1.30;;;;;;;;;;5056273;28;20029;-74
2023/10/24 06:24:04;;;;;;;2.22;1.85;;;;;;;;;;5055230;28;20070;-74
2023/10/24 06:26:30;;;;;;;2.70;2.00;;;;;;;;;;5057047;28;20523;-75
2023/10/24 06:28:56;;;;;;;3.03;2.05;;;;;;;;;;5060264;28;20357;-75
2023/10/24 06:31:22;;;;;;;1.77;1.67;;;;;;;;;;5057166;28;20036;-74
2023/10/24 06:33:48;;;;;;;5.18;1.85;;;;;;;;;;5057679;28;20100;-74
2023/10/24 06:36:14;;;;;;;3.13;2.40;;;;;;;;;;5056147;28;20028;-75
2023/10/24 06:38:40;;;;;;;6.07;2.75;;;;;;;;;;5056501;28;20028;-75
2023/10/24 06:41:07;;;;;;;2.65;2.20;;;;;;;;;;5055737;28;20422;-75
2023/10/24 06:43:34;;;;;;;2.53;1.83;;;;;;;;;;5056444;28;20021;-73
2023/10/24 06:46:02;;;;;;;2.28;2.03;;;;;;;;;;5053913;28;20043;-75
2023/10/24 06:48:30;;;;;;;2.22;2.03;;;;;;;;;;5035717;28;20519;-74
2023/10/24 06:50:57;;;;;;;2.80;1.90;;;;;;;;;;5047222;28;20071;-75
2023/10/24 06:53:23;;;;;;;2.15;1.67;;;;;;;;;;5056989;28;20013;-76
2023/10/24 06:55:49;;;;;;;1.73;1.63;;;;;;;;;;5056461;28;20029;-75
2023/10/24 06:58:15;;;;;;;2.20;1.33;;;;;;;;;;5055016;28;20083;-75
2023/10/24 07:00:41;;;;;;;1.20;1.10;;;;;;;;;;5055640;28;20084;-75
2023/10/24 07:03:08;;;;;;;1.42;1.33;;;;;;;;;;5057510;28;20131;-74
2023/10/24 07:05:34;;;;;;;1.20;1.10;;;;;;;;;;5056757;28;20123;-75
2023/10/24 07:08:00;;;;;;;1.58;1.30;;;;;;;;;;5055455;28;20044;-75
2023/10/24 07:10:26;;;;;;;2.25;1.33;;;;;;;;;;5054941;28;20116;-75
2023/10/24 07:12:52;;;;;;;1.23;1.15;;;;;;;;;;5055685;28;20104;-75
2023/10/24 07:15:18;;;;;;;1.38;1.20;;;;;;;;;;5059647;28;20021;-73
2023/10/24 07:17:44;;;;;;;1.13;1.13;;;;;;;;;;5063215;28;20041;-74
2023/10/24 07:20:11;;;;;;;1.65;1.55;;;;;;;;;;5040574;28;20036;-74
2023/10/24 07:22:37;;;;;;;2.60;2.03;;;;;;;;;;5054603;28;20421;-75
2023/10/24 07:25:03;;;;;;;3.83;2.38;;;;;;;;;;5075789;28;20024;-75
2023/10/24 07:27:29;;;;;;;3.00;2.30;;;;;;;;;;5070761;28;20074;-76
2023/10/24 07:29:56;;;;;;;3.28;2.35;;;;;;;;;;5054323;28;20060;-76
2023/10/24 07:32:22;;;;;;;3.25;2.42;;;;;;;;;;5054888;28;20495;-75
2023/10/24 07:34:48;;;;;;;2.80;2.10;;;;;;;;;;5055258;28;20075;-74
2023/10/24 07:37:15;;;;;;;4.72;2.50;;;;;;;;;;5054704;28;20017;-74
2023/10/24 07:39:41;;;;;;;2.50;2.20;;;;;;;;;;5036263;28;20041;-74
2023/10/24 07:42:08;;;;;;;3.97;2.55;;;;;;;;;;5035731;28;20400;-74
2023/10/24 07:44:35;;;;;;;4.60;3.15;;;;;;;;;;5033801;28;20037;-75
2023/10/24 07:47:01;;;;;;;3.78;2.90;;;;;;;;;;5037277;28;20025;-74
2023/10/24 07:49:27;;;;;;;5.18;2.92;;;;;;;;;;5056082;28;20024;-75
2023/10/24 07:51:54;;;;;;;2.58;2.38;;;;;;;;;;5061837;28;20032;-74
2023/10/24 07:54:20;;;;;;;2.88;2.40;;;;;;;;;;5058876;28;20025;-75
2023/10/24 07:56:46;;;;;;;3.92;3.13;;;;;;;;;;5061687;28;20463;-75
2023/10/24 07:59:12;;;;;;;4.80;3.65;;;;;;;;;;5059982;28;20040;-75
2023/10/24 08:01:38;;;;;;;4.10;3.22;;;;;;;;;;5067670;28;20100;-75
2023/10/24 08:04:04;;;;;;;4.57;2.70;;;;;;;;;;5060467;28;20028;-75
2023/10/24 08:06:30;;;;;;;3.53;2.75;;;;;;;;;;5053272;28;20173;-75
2023/10/24 08:08:56;;;;;;;5.47;3.88;;;;;;;;;;5054868;28;20074;-74
2023/10/24 08:11:22;;;;;;;6.28;4.22;;;;;;;;;;5054265;28;20029;-75
2023/10/24 08:13:48;;;;;;;8.13;4.47;;;;;;;;;;5055782;28;20025;-73
2023/10/24 08:16:14;;;;;;;4.82;3.92;;;;;;;;;;5056802;28;20036;-76
2023/10/24 08:18:41;;;;;;;5.47;4.65;;;;;;;;;;5055553;28;20087;-74
2023/10/24 08:21:07;;;;;;;4.70;3.85;;;;;;;;;;5052908;28;20120;-74
2023/10/24 08:23:33;;;;;;;3.70;3.40;;;;;;;;;;5054507;28;20029;-74
2023/10/24 08:25:59;;;;;;;5.97;3.83;;;;;;;;;;5054636;28;20032;-74
2023/10/24 08:28:25;;;;;;;6.03;4.70;;;;;;;;;;5054188;28;20025;-74
2023/10/24 08:30:52;;;;;;;6.97;4.45;;;;;;;;;;5052477;28;20086;-74
2023/10/24 08:33:20;;;;;;;5.30;3.88;;;;;;;;;;5054000;28;20373;-74
2023/10/24 08:35:46;;;;;;;5.00;4.03;;;;;;;;;;5054104;28;20071;-74
2023/10/24 08:38:13;;;;;;;7.35;5.53;;;;;;;;;;5057384;28;20024;-74
2023/10/24 08:40:40;;;;;;;6.82;6.13;;;;;;;;;;5045369;28;20063;-74
2023/10/24 08:43:08;;;;;;;7.40;5.35;;;;;;;;;;5033553;28;20392;-74
2023/10/24 08:45:34;;;;;;;8.20;6.32;;;;;;;;;;5034595;28;20017;-74
2023/10/24 08:48:01;;;;;;;6.88;6.05;;;;;;;;;;5035600;28;20336;-76
2023/10/24 08:50:27;;;;;;;6.47;5.82;;;;;;;;;;5041712;28;20021;-74
2023/10/24 08:52:54;;;;;;;10.73;6.22;;;;;;;;;;5053782;28;20028;-75
2023/10/24 08:55:20;;;;;;;7.38;5.43;;;;;;;;;;5055108;28;20026;-75
2023/10/24 08:57:46;;;;;;;6.15;5.10;;;;;;;;;;5054971;28;20028;-74
2023/10/24 09:00:14;;;;;;;6.38;5.70;;;;;;;;;;5053576;28;20025;-75
2023/10/24 09:02:43;;;;;;;7.90;5.28;;;;;;;;;;5053668;28;20070;-75
2023/10/24 09:05:10;;;;;;;9.75;5.88;;;;;;;;;;5053410;28;20017;-75
2023/10/24 09:07:36;;;;;;;5.85;5.28;;;;;;;;;;5052744;28;20017;-75
2023/10/24 09:10:02;;;;;;;7.07;6.03;;;;;;;;;;5053029;28;20087;-74
2023/10/24 09:12:30;;;;;;;7.88;5.85;;;;;;;;;;5053134;28;20029;-74
2023/10/24 09:14:56;;;;;;;5.82;4.43;;;;;;;;;;5054618;28;20030;-74
2023/10/24 09:17:24;;;;;;;7.95;5.47;;;;;;;;;;5053305;28;20032;-73
2023/10/24 09:19:50;;;;;;;8.55;5.57;;;;;;;;;;5060456;28;20048;-74
2023/10/24 09:22:16;;;;;;;7.28;5.10;;;;;;;;;;5048292;28;20033;-75
2023/10/24 09:24:46;;;;;;;4.78;4.15;;;;;;;;;;5061197;28;20060;-75
2023/10/24 09:27:14;;;;;;;4.45;4.05;;;;;;;;;;5058429;28;20021;-75
2023/10/24 09:29:40;;;;;;;5.03;4.38;;;;;;;;;;5054747;28;20032;-75
2023/10/24 09:32:07;;;;;;;3.65;3.30;;;;;;;;;;5054326;28;20025;-75
2023/10/24 09:34:34;;;;;;;3.55;3.22;;;;;;;;;;5053835;28;20024;-75
2023/10/24 09:37:06;;;;;;;3.47;3.15;;;;;;;;;;5065548;28;20052;-74
2023/10/24 09:39:32;;;;;;;5.28;4.35;;;;;;;;;;5072094;28;20029;-74
2023/10/24 09:41:58;;;;;;;5.85;4.68;;;;;;;;;;5069178;28;20049;-74
2023/10/24 09:44:25;;;;;;;8.30;4.40;;;;;;;;;;5069869;28;20055;-74
2023/10/24 09:46:51;;;;;;;7.63;5.22;;;;;;;;;;5071925;28;20052;-74
2023/10/24 09:49:18;;;;;;;6.07;4.85;;;;;;;;;;5073217;28;20025;-74
2023/10/24 09:51:45;;;;;;;5.00;4.57;;;;;;;;;;5073418;28;20064;-74
2023/10/24 09:54:11;;;;;;;7.40;5.75;;;;;;;;;;5074517;28;20032;-74
2023/10/24 09:56:39;;;;;;;7.68;5.10;;;;;;;;;;5067815;28;20106;-74
2023/10/24 09:59:05;;;;;;;6.47;4.45;;;;;;;;;;5070144;28;20084;-74
2023/10/24 10:01:32;;;;;;;5.20;4.30;;;;;;;;;;5076557;28;20029;-73
2023/10/24 10:04:00;;;;;;;6.55;4.47;;;;;;;;;;5065854;28;20025;-74
2023/10/24 10:06:29;;;;;;;4.28;3.88;;;;;;;;;;5065834;28;20043;-74
2023/10/24 10:08:58;;;;;;;4.63;3.78;;;;;;;;;;5074922;28;20047;-74
2023/10/24 10:11:26;;;;;;;4.63;4.10;;;;;;;;;;5076036;28;20046;-74
2023/10/24 10:14:02;;;;;;;8.30;5.57;;;;;;;;;;5057443;28;20033;-74
2023/10/24 10:16:29;;;;;;;8.32;6.47;;;;;;;;;;5056304;28;20043;-74
2023/10/24 10:19:07;;;;;;;9.48;7.07;;;;;;;;;;5053707;28;20025;-74
2023/10/24 10:21:52;;;;;;;6.07;5.47;;;;;;;;;;5068398;28;20029;-75
2023/10/24 10:24:21;;;;;;;6.75;5.75;;;;;;;;;;5069298;28;20032;-74
2023/10/24 10:26:47;;;;;;;7.70;5.90;;;;;;;;;;5069371;28;20025;-75
2023/10/24 10:29:25;;;;;;;7.25;6.53;;;;;;;;;;5065577;28;20021;-74
2023/10/24 10:32:03;;;;;;;8.43;7.43;;;;;;;;;;5069330;28;20490;-76
2023/10/24 10:34:37;;;;;;;11.20;7.40;;;;;;;;;;5066547;28;20024;-75
2023/10/24 10:37:03;;;;;;;8.20;6.10;;;;;;;;;;5068151;28;20116;-74
2023/10/24 10:39:29;;;;;;;8.85;5.75;;;;;;;;;;5070900;28;20013;-75
2023/10/24 10:41:56;;;;;;;5.70;5.03;;;;;;;;;;5070827;28;20039;-75
2023/10/24 10:44:36;;;;;;;6.32;5.57;;;;;;;;;;5055344;28;20232;-74
2023/10/24 10:47:03;;;;;;;8.02;6.13;;;;;;;;;;5050038;28;20082;-75
2023/10/24 10:49:41;;;;;;;8.73;6.88;;;;;;;;;;5049015;28;20053;-75
2023/10/24 10:52:12;;;;;;;8.65;7.15;;;;;;;;;;5062079;28;20025;-75
2023/10/24 10:54:45;;;;;;;7.03;6.32;;;;;;;;;;5068085;28;20033;-76
2023/10/24 10:57:14;;;;;;;9.23;7.70;;;;;;;;;;5069536;28;20024;-75
2023/10/24 10:59:40;;;;;;;7.78;6.97;;;;;;;;;;5071671;28;20033;-74
2023/10/24 11:02:16;;;;;;;7.55;6.85;;;;;;;;;;5072194;28;20021;-74
2023/10/24 11:04:43;;;;;;;11.90;8.07;;;;;;;;;;5056578;28;20033;-75
2023/10/24 11:07:10;;;;;;;11.32;10.13;;;;;;;;;;5045146;28;20492;-76
2023/10/24 11:09:37;;;;;;;10.65;8.75;;;;;;;;;;5045001;28;20026;-74
2023/10/24 11:12:22;;;;;;;11.05;9.13;;;;;;;;;;5044450;28;20081;-75
2023/10/24 11:15:10;;;;;;;10.57;8.43;;;;;;;;;;5052301;28;20028;-75
2023/10/24 11:17:36;;;;;;;8.30;6.68;;;;;;;;;;5066725;28;20499;-75
2023/10/24 11:20:05;;;;;;;7.85;6.50;;;;;;;;;;5067642;28;20017;-74
2023/10/24 11:22:31;;;;;;;7.47;6.78;;;;;;;;;;5065010;28;20029;-75
2023/10/24 11:24:58;;;;;;;11.63;7.68;;;;;;;;;;5059875;28;20022;-75
2023/10/24 11:27:24;;;;;;;10.30;8.65;;;;;;;;;;5041220;28;20033;-75
2023/10/24 11:29:50;;;;;;;9.00;8.10;;;;;;;;;;5040436;28;20072;-75
2023/10/24 11:32:17;;;;;;;8.98;7.93;;;;;;;;;;5037984;28;20033;-75
2023/10/24 11:34:43;;;;;;;8.43;7.43;;;;;;;;;;5040949;28;20452;-75
2023/10/24 11:37:09;;;;;;;7.10;6.40;;;;;;;;;;5058296;28;20021;-74
2023/10/24 11:39:36;;;;;;;7.05;5.93;;;;;;;;;;5057058;28;20085;-75
2023/10/24 11:42:05;;;;;;;7.93;6.28;;;;;;;;;;5060985;28;20029;-74
2023/10/24 11:44:31;;;;;;;6.15;5.35;;;;;;;;;;5061927;28;20028;-74
2023/10/24 11:46:57;;;;;;;8.43;6.80;;;;;;;;;;5062219;28;20059;-74
2023/10/24 11:49:33;;;;;;;14.52;11.45;;;;;;;;;;5064248;28;20028;-73
2023/10/24 11:51:59;;;;;;;11.57;8.98;;;;;;;;;;5063593;28;20072;-73
2023/10/24 11:54:26;;;;;;;8.85;7.93;;;;;;;;;;5067326;28;20040;-74
2023/10/24 11:56:53;;;;;;;12.60;10.48;;;;;;;;;;5056661;28;20029;-73
2023/10/24 11:59:19;;;;;;;17.48;12.32;;;;;;;;;;5070466;28;20058;-74
2023/10/24 12:01:45;;;;;;;22.00;14.88;;;;;;;;;;5068535;28;20084;-75
2023/10/24 12:04:15;;;;;;;16.40;14.65;;;;;;;;;;5064068;28;20036;-75
2023/10/24 12:06:41;;;;;;;17.55;15.65;;;;;;;;;;5065142;28;20036;-74
2023/10/24 12:09:07;;;;;;;17.55;14.25;;;;;;;;;;5063471;28;20032;-75
2023/10/24 12:11:34;;;;;;;15.93;13.88;;;;;;;;;;5063804;28;20060;-75
2023/10/24 12:14:01;;;;;;;18.85;15.05;;;;;;;;;;5064168;28;20071;-74
2023/10/24 12:16:30;;;;;;;17.95;15.95;;;;;;;;;;5058382;28;20025;-75
2023/10/24 12:18:57;;;;;;;19.08;16.55;;;;;;;;;;5048794;28;20033;-74
2023/10/24 12:21:23;;;;;;;19.45;17.38;;;;;;;;;;5064701;28;20460;-74
2023/10/24 12:23:49;;;;;;;23.15;19.45;;;;;;;;;;5086332;28;20035;-74
2023/10/24 12:26:16;;;;;;;22.92;19.13;;;;;;;;;;5085788;28;20020;-74
2023/10/24 12:28:45;;;;;;;20.25;16.77;;;;;;;;;;5068522;28;20044;-74
2023/10/24 12:31:11;;;;;;;22.65;20.20;;;;;;;;;;5068047;28;20029;-73
2023/10/24 12:33:38;;;;;;;29.20;21.83;;;;;;;;;;5067843;28;20020;-73
2023/10/24 12:36:06;;;;;;;22.98;19.38;;;;;;;;;;5064327;28;20033;-73
2023/10/24 12:38:32;;;;;;;20.65;18.55;;;;;;;;;;5046146;28;20021;-73
2023/10/24 12:40:59;;;;;;;21.20;18.77;;;;;;;;;;5048785;28;20029;-72
2023/10/24 12:43:25;;;;;;;23.88;17.08;;;;;;;;;;5047159;28;20101;-73
2023/10/24 12:45:51;;;;;;;16.25;14.63;;;;;;;;;;5042650;28;20400;-73
2023/10/24 12:48:17;;;;;;;14.85;13.30;;;;;;;;;;5056455;28;20402;-73
2023/10/24 12:50:44;;;;;;;16.48;14.25;;;;;;;;;;5055746;28;20096;-73
2023/10/24 12:53:10;;;;;;;17.77;15.90;;;;;;;;;;5055653;28;20484;-74
2023/10/24 12:55:36;;;;;;;17.83;15.93;;;;;;;;;;5055965;28;20065;-73
2023/10/24 12:58:02;;;;;;;19.98;16.15;;;;;;;;;;5055213;28;20033;-73
2023/10/24 13:00:28;;;;;;;17.88;14.70;;;;;;;;;;5055957;28;20025;-74
2023/10/24 13:02:54;;;;;;;17.15;15.05;;;;;;;;;;5053832;28;20073;-73
2023/10/24 13:05:21;;;;;;;19.17;15.18;;;;;;;;;;5055188;28;20304;-74
2023/10/24 13:07:47;;;;;;;21.15;15.40;;;;;;;;;;5045830;28;20041;-73
2023/10/24 13:10:14;;;;;;;17.30;15.25;;;;;;;;;;5038586;28;20392;-73
2023/10/24 13:12:40;;;;;;;17.60;15.10;;;;;;;;;;5037426;28;20491;-73
2023/10/24 13:15:06;;;;;;;22.27;16.20;;;;;;;;;;5039032;28;20388;-72
2023/10/24 13:17:33;;;;;;;17.95;13.23;;;;;;;;;;5043003;28;20033;-73
2023/10/24 13:19:59;;;;;;;14.48;12.98;;;;;;;;;;5056611;28;20345;-73
2023/10/24 13:22:25;;;;;;;22.25;19.05;;;;;;;;;;5057184;28;20049;-73
2023/10/24 13:24:51;;;;;;;19.48;16.70;;;;;;;;;;5043779;28;20032;-73
2023/10/24 13:27:19;;;;;;;18.65;16.15;;;;;;;;;;5041684;28;20075;-73
2023/10/24 13:29:45;;;;;;;22.73;18.42;;;;;;;;;;5039272;28;20052;-73
2023/10/24 13:32:11;;;;;;;20.05;17.52;;;;;;;;;;5042005;28;20032;-73
2023/10/24 13:34:37;;;;;;;22.45;17.98;;;;;;;;;;5041422;28;20025;-73
2023/10/24 13:37:03;;;;;;;22.27;17.85;;;;;;;;;;5037908;28;20367;-73
2023/10/24 13:39:29;;;;;;;22.70;17.95;;;;;;;;;;5038125;28;20053;-74
2023/10/24 13:41:55;;;;;;;22.23;16.98;;;;;;;;;;5038405;28;20029;-72
2023/10/24 13:44:21;;;;;;;25.98;19.30;;;;;;;;;;5037896;28;20104;-73
2023/10/24 13:46:48;;;;;;;19.65;16.83;;;;;;;;;;5036328;28;20542;-73
2023/10/24 13:49:14;;;;;;;21.55;16.15;;;;;;;;;;5049368;28;20021;-73
2023/10/24 13:51:40;;;;;;;23.17;16.58;;;;;;;;;;5057574;28;20028;-74
2023/10/24 13:54:07;;;;;;;17.50;15.68;;;;;;;;;;5036862;28;20022;-73
2023/10/24 13:56:33;;;;;;;18.77;16.35;;;;;;;;;;5038520;28;20419;-74
2023/10/24 13:58:59;;;;;;;17.23;15.02;;;;;;;;;;5045862;28;20028;-72
2023/10/24 14:01:28;;;;;;;18.70;15.07;;;;;;;;;;5057833;28;20025;-73
2023/10/24 14:03:54;;;;;;;17.50;15.68;;;;;;;;;;5057891;28;20075;-72
2023/10/24 14:06:20;;;;;;;17.40;15.55;;;;;;;;;;5058981;28;20025;-73
2023/10/24 14:08:47;;;;;;;16.98;15.18;;;;;;;;;;5057831;28;20021;-72
2023/10/24 14:11:13;;;;;;;15.70;14.02;;;;;;;;;;5058170;28;20033;-72
2023/10/24 14:13:39;;;;;;;18.15;14.60;;;;;;;;;;5057840;28;20104;-72
2023/10/24 14:16:05;;;;;;;16.63;12.10;;;;;;;;;;5056772;28;20087;-73
2023/10/24 14:18:31;;;;;;;13.32;12.02;;;;;;;;;;5057329;28;20032;-74
2023/10/24 14:20:58;;;;;;;12.52;11.32;;;;;;;;;;5058671;28;20037;-72
2023/10/24 14:23:24;;;;;;;15.18;11.63;;;;;;;;;;5049517;28;20025;-75
2023/10/24 14:25:50;;;;;;;14.77;11.48;;;;;;;;;;5034691;28;20021;-73
2023/10/24 14:28:16;;;;;;;14.48;10.73;;;;;;;;;;5036493;28;20032;-74
2023/10/24 14:30:43;;;;;;;14.77;10.63;;;;;;;;;;5037801;28;20033;-73
2023/10/24 14:33:09;;;;;;;12.20;9.60;;;;;;;;;;5034714;28;20091;-74
2023/10/24 14:35:35;;;;;;;8.88;7.50;;;;;;;;;;5035564;28;20132;-73
2023/10/24 14:38:02;;;;;;;15.05;10.00;;;;;;;;;;5034542;28;20029;-73